Krasnosel'kup, Russia
Current Conditions -  °F | °C
As of 7:30 AM on Sunday 26 Oct 2014 (Local Time) from USNN Reporting Station
Clear Clear  
Wind Chill: -18°   Ceiling: Unl
Heat Index: -4°   Visibility: 6mi
Dew Point: -8°   Wind: 7mph
Humidity: 85%   Direction: 200°SSW
Pressure: 29.65"   Gusts: NA
Location:  65.68°N, 82.47°E
Report Text: USNN 260230Z 20003MPS CAVOK M20/M22 Q1004 NOSIG RMK QFE74821410362
Loading
Personal Weather Stations






























Interactive Weather Map
Tropical Storm Tracking
New forecast layout! Learn more

10-Day Weather Forecast

Advertisements
Track Severe Weather on mobile